Time,TemperatureF,DewpointF,PressureIn,WindDirection,WindDirectionDegrees,WindSpeedMPH,WindSpeedGustMPH,Humidity,HourlyPrecipIn,Conditions,Clouds,dailyrainin,SoftwareType,DateUTC
2013-12-02 00:01:00,27.0,23.6,29.88,SE,130,3.0,3.0,87,0.00,,---,0.00,VWS V14.01,2013-12-02 06:01:00,
2013-12-02 00:06:00,27.2,23.9,29.88,SE,127,3.0,5.0,87,0.00,,---,0.00,VWS V14.01,2013-12-02 06:06:00,
2013-12-02 00:11:00,27.3,24.0,29.88,SSE,147,5.0,5.0,87,0.00,,---,0.00,VWS V14.01,2013-12-02 06:11:00,
2013-12-02 00:16:00,27.5,23.9,29.87,SE,126,3.0,6.0,86,0.00,,---,0.00,VWS V14.01,2013-12-02 06:16:00,
2013-12-02 00:21:00,27.5,23.9,29.87,ESE,121,5.0,5.0,86,0.00,,---,0.00,VWS V14.01,2013-12-02 06:21:00,
2013-12-02 00:26:00,27.6,24.0,29.87,SE,130,2.0,7.0,86,0.00,,---,0.00,VWS V14.01,2013-12-02 06:26:00,
2013-12-02 00:31:00,27.6,24.0,29.85,SE,128,3.0,5.0,86,0.00,,---,0.00,VWS V14.01,2013-12-02 06:31:00,
2013-12-02 00:36:00,27.8,23.9,29.85,ESE,119,4.0,7.0,85,0.00,,---,0.00,VWS V14.01,2013-12-02 06:36:00,
2013-12-02 00:41:00,27.8,23.9,29.85,SE,126,5.0,6.0,85,0.00,,---,0.00,VWS V14.01,2013-12-02 06:41:00,
2013-12-02 00:46:00,27.8,23.9,29.85,ESE,119,3.0,7.0,85,0.00,,---,0.00,VWS V14.01,2013-12-02 06:46:00,
2013-12-02 00:51:00,27.8,23.9,29.85,ESE,120,5.0,6.0,85,0.00,,---,0.00,VWS V14.01,2013-12-02 06:51:00,
2013-12-02 00:56:00,27.8,23.9,29.85,ESE,106,1.0,7.0,85,0.00,,---,0.00,VWS V14.01,2013-12-02 06:56:00,
2013-12-02 01:01:00,27.8,23.9,29.84,SE,138,1.0,5.0,85,0.00,,---,0.00,VWS V14.01,2013-12-02 07:01:00,
2013-12-02 01:06:00,27.8,24.2,29.84,SSE,150,5.0,5.0,86,0.00,,---,0.00,VWS V14.01,2013-12-02 07:06:00,
2013-12-02 01:11:00,27.6,24.0,29.84,SSE,154,2.0,3.0,86,0.00,,---,0.00,VWS V14.01,2013-12-02 07:11:00,
2013-12-02 01:16:00,27.5,24.1,29.84,SSE,147,3.0,5.0,87,0.00,,---,0.00,VWS V14.01,2013-12-02 07:16:00,
2013-12-02 01:21:00,27.3,24.0,29.84,SE,145,2.0,3.0,87,0.00,,---,0.00,VWS V14.01,2013-12-02 07:21:00,
2013-12-02 01:26:00,27.5,24.1,29.84,SE,144,2.0,3.0,87,0.00,,---,0.00,VWS V14.01,2013-12-02 07:26:00,
2013-12-02 01:31:00,27.5,24.1,29.84,SE,145,1.0,2.0,87,0.00,,---,0.00,VWS V14.01,2013-12-02 07:31:00,
2013-12-02 01:36:00,27.5,24.1,29.84,SE,145,3.0,3.0,87,0.00,,---,0.00,VWS V14.01,2013-12-02 07:36:00,
2013-12-02 01:41:00,27.6,24.2,29.84,SE,144,2.0,3.0,87,0.00,,---,0.00,VWS V14.01,2013-12-02 07:41:00,
2013-12-02 01:46:00,27.6,24.2,29.84,SE,144,2.0,5.0,87,0.00,,---,0.00,VWS V14.01,2013-12-02 07:46:00,
2013-12-02 01:51:00,27.6,24.2,29.84,SE,138,3.0,4.0,87,0.00,,---,0.00,VWS V14.01,2013-12-02 07:51:00,
2013-12-02 01:56:00,27.8,24.4,29.84,SE,138,2.0,6.0,87,0.00,,---,0.00,VWS V14.01,2013-12-02 07:56:00,
2013-12-02 02:01:00,27.9,24.5,29.83,SE,144,2.0,3.0,87,0.00,,---,0.00,VWS V14.01,2013-12-02 08:01:00,
2013-12-02 02:06:00,27.9,24.5,29.83,SSE,158,3.0,4.0,87,0.00,,---,0.00,VWS V14.01,2013-12-02 08:06:00,
2013-12-02 02:11:00,28.1,24.7,29.83,SSE,151,3.0,5.0,87,0.00,,---,0.00,VWS V14.01,2013-12-02 08:11:00,
2013-12-02 02:16:00,28.1,24.5,29.83,SSE,155,3.0,6.0,86,0.00,,---,0.00,VWS V14.01,2013-12-02 08:16:00,
2013-12-02 02:21:00,28.2,24.6,29.83,SE,145,3.0,3.0,86,0.00,,---,0.00,VWS V14.01,2013-12-02 08:21:00,
2013-12-02 02:26:00,28.2,24.6,29.83,SSE,155,5.0,6.0,86,0.00,,---,0.00,VWS V14.01,2013-12-02 08:26:00,
2013-12-02 02:31:00,28.4,24.8,29.82,SSE,154,2.0,7.0,86,0.00,,---,0.00,VWS V14.01,2013-12-02 08:31:00,
2013-12-02 02:36:00,28.5,24.9,29.82,SSE,162,6.0,7.0,86,0.00,,---,0.00,VWS V14.01,2013-12-02 08:36:00,
2013-12-02 02:41:00,28.5,24.9,29.82,SSE,164,3.0,5.0,86,0.00,,---,0.00,VWS V14.01,2013-12-02 08:41:00,
2013-12-02 02:46:00,28.7,25.0,29.81,SSE,151,5.0,6.0,86,0.00,,---,0.00,VWS V14.01,2013-12-02 08:46:00,
2013-12-02 02:51:00,28.7,24.8,29.81,SSE,155,3.0,4.0,85,0.00,,---,0.00,VWS V14.01,2013-12-02 08:51:00,
2013-12-02 02:56:00,28.7,24.8,29.81,SSE,158,3.0,8.0,85,0.00,,---,0.00,VWS V14.01,2013-12-02 08:56:00,
2013-12-02 03:01:00,28.8,24.9,29.81,SSE,167,7.0,7.0,85,0.00,,---,0.00,VWS V14.01,2013-12-02 09:01:00,
2013-12-02 03:06:00,28.8,24.9,29.81,SE,144,2.0,7.0,85,0.00,,---,0.00,VWS V14.01,2013-12-02 09:06:00,
2013-12-02 03:11:00,28.8,24.9,29.81,SSE,161,3.0,6.0,85,0.00,,---,0.00,VWS V14.01,2013-12-02 09:11:00,
2013-12-02 03:16:00,28.8,24.9,29.80,SSE,168,7.0,7.0,85,0.00,,---,0.00,VWS V14.01,2013-12-02 09:16:00,
2013-12-02 03:21:00,28.7,24.8,29.80,SSE,158,6.0,6.0,85,0.00,,---,0.00,VWS V14.01,2013-12-02 09:21:00,
2013-12-02 03:26:00,28.7,24.8,29.80,SE,136,5.0,6.0,85,0.00,,---,0.00,VWS V14.01,2013-12-02 09:26:00,
2013-12-02 03:31:00,28.7,25.0,29.79,SE,138,5.0,6.0,86,0.00,,---,0.00,VWS V14.01,2013-12-02 09:31:00,
2013-12-02 03:36:00,28.5,24.9,29.79,SE,127,2.0,6.0,86,0.00,,---,0.00,VWS V14.01,2013-12-02 09:36:00,
2013-12-02 03:41:00,28.5,24.9,29.79,SE,130,5.0,6.0,86,0.00,,---,0.00,VWS V14.01,2013-12-02 09:41:00,
2013-12-02 03:46:00,28.4,24.8,29.78,SE,140,3.0,8.0,86,0.00,,---,0.00,VWS V14.01,2013-12-02 09:46:00,
2013-12-02 03:51:00,28.2,24.8,29.78,SE,126,7.0,7.0,87,0.00,,---,0.00,VWS V14.01,2013-12-02 09:51:00,
2013-12-02 03:56:00,28.1,24.7,29.78,SE,137,5.0,7.0,87,0.00,,---,0.00,VWS V14.01,2013-12-02 09:56:00,
2013-12-02 04:01:00,27.9,24.5,29.77,SE,141,5.0,8.0,87,0.00,,---,0.00,VWS V14.01,2013-12-02 10:01:00,
2013-12-02 04:06:00,27.8,24.7,29.77,SE,137,4.0,8.0,88,0.00,,---,0.00,VWS V14.01,2013-12-02 10:06:00,
2013-12-02 04:11:00,27.9,24.8,29.77,SE,138,5.0,6.0,88,0.00,,---,0.00,VWS V14.01,2013-12-02 10:11:00,
2013-12-02 04:16:00,27.9,24.8,29.76,ESE,109,3.0,9.0,88,0.00,,---,0.00,VWS V14.01,2013-12-02 10:16:00,
2013-12-02 04:21:00,27.9,24.8,29.76,SE,140,6.0,8.0,88,0.00,,---,0.00,VWS V14.01,2013-12-02 10:21:00,
2013-12-02 04:26:00,27.8,24.7,29.76,SE,130,5.0,8.0,88,0.00,,---,0.00,VWS V14.01,2013-12-02 10:26:00,
2013-12-02 04:31:00,27.6,24.5,29.75,SE,136,5.0,6.0,88,0.00,,---,0.00,VWS V14.01,2013-12-02 10:31:00,
2013-12-02 04:36:00,27.6,24.5,29.75,SE,140,3.0,7.0,88,0.00,,---,0.00,VWS V14.01,2013-12-02 10:36:00,
2013-12-02 04:41:00,27.6,24.5,29.75,SSE,152,2.0,3.0,88,0.00,,---,0.00,VWS V14.01,2013-12-02 10:41:00,
2013-12-02 04:46:00,27.6,24.8,29.75,SE,137,4.0,6.0,89,0.00,,---,0.00,VWS V14.01,2013-12-02 10:46:00,
2013-12-02 04:51:00,27.6,24.8,29.75,SE,140,7.0,7.0,89,0.00,,---,0.00,VWS V14.01,2013-12-02 10:51:00,
2013-12-02 04:56:00,27.6,24.8,29.75,SSE,151,2.0,7.0,89,0.00,,---,0.00,VWS V14.01,2013-12-02 10:56:00,
2013-12-02 05:01:00,27.6,24.8,29.75,SSE,160,2.0,4.0,89,0.00,,---,0.00,VWS V14.01,2013-12-02 11:01:00,
2013-12-02 05:06:00,27.6,24.8,29.75,SSE,147,2.0,6.0,89,0.00,,---,0.00,VWS V14.01,2013-12-02 11:06:00,
2013-12-02 05:11:00,27.6,24.8,29.75,SSE,151,3.0,3.0,89,0.00,,---,0.00,VWS V14.01,2013-12-02 11:11:00,
2013-12-02 05:16:00,27.6,24.8,29.75,SE,138,3.0,6.0,89,0.00,,---,0.00,VWS V14.01,2013-12-02 11:16:00,
2013-12-02 05:20:00,27.6,24.8,29.75,SSE,151,5.0,5.0,89,0.00,,---,0.00,VWS V14.01,2013-12-02 11:20:00,
2013-12-02 05:25:00,27.8,25.0,29.75,SSE,161,1.0,5.0,89,0.00,,---,0.00,VWS V14.01,2013-12-02 11:25:00,
2013-12-02 05:30:00,27.8,25.0,29.74,SSE,155,6.0,6.0,89,0.00,,---,0.00,VWS V14.01,2013-12-02 11:30:00,
2013-12-02 05:35:00,27.8,25.0,29.74,SE,138,6.0,7.0,89,0.00,,---,0.00,VWS V14.01,2013-12-02 11:35:00,
2013-12-02 05:40:00,27.9,25.1,29.74,SE,140,6.0,6.0,89,0.00,,---,0.00,VWS V14.01,2013-12-02 11:40:00,
2013-12-02 05:45:00,27.9,25.1,29.74,SSE,161,3.0,7.0,89,0.00,,---,0.00,VWS V14.01,2013-12-02 11:45:00,
2013-12-02 05:50:00,28.1,25.3,29.74,SE,145,4.0,5.0,89,0.00,,---,0.00,VWS V14.01,2013-12-02 11:50:00,
2013-12-02 05:55:00,28.2,25.4,29.74,SE,144,6.0,6.0,89,0.00,,---,0.00,VWS V14.01,2013-12-02 11:55:00,
2013-12-02 06:00:00,28.2,25.1,29.73,SSE,147,5.0,6.0,88,0.00,,---,0.00,VWS V14.01,2013-12-02 12:00:00,
2013-12-02 06:05:00,28.4,25.3,29.73,SSE,152,7.0,9.0,88,0.00,,---,0.00,VWS V14.01,2013-12-02 12:05:00,
2013-12-02 06:10:00,28.4,25.6,29.73,SE,140,7.0,11.0,89,0.00,,---,0.00,VWS V14.01,2013-12-02 12:10:00,
2013-12-02 06:15:00,28.4,25.9,29.72,SE,131,5.0,11.0,90,0.00,,---,0.00,VWS V14.01,2013-12-02 12:15:00,
2013-12-02 06:20:00,28.4,25.9,29.72,SE,141,7.0,7.0,90,0.00,,---,0.00,VWS V14.01,2013-12-02 12:20:00,
2013-12-02 06:25:00,28.4,26.1,29.72,SSE,148,6.0,8.0,91,0.00,,---,0.00,VWS V14.01,2013-12-02 12:25:00,
2013-12-02 06:30:00,28.4,26.1,29.71,SSE,147,7.0,8.0,91,0.00,,---,0.00,VWS V14.01,2013-12-02 12:30:00,
2013-12-02 06:35:00,28.4,26.1,29.71,SE,128,7.0,12.0,91,0.00,,---,0.00,VWS V14.01,2013-12-02 12:35:00,
2013-12-02 06:40:00,28.4,26.1,29.71,SE,138,7.0,7.0,91,0.00,,---,0.00,VWS V14.01,2013-12-02 12:40:00,
2013-12-02 06:45:00,28.5,26.2,29.71,SE,143,4.0,10.0,91,0.00,,---,0.00,VWS V14.01,2013-12-02 12:45:00,
2013-12-02 06:50:00,28.5,26.2,29.71,SE,143,7.0,7.0,91,0.00,,---,0.00,VWS V14.01,2013-12-02 12:50:00,
2013-12-02 06:55:00,28.5,26.2,29.71,SSE,161,8.0,8.0,91,0.00,,---,0.00,VWS V14.01,2013-12-02 12:55:00,
2013-12-02 07:00:00,28.5,26.2,29.71,SSE,148,6.0,6.0,91,0.00,,---,0.00,VWS V14.01,2013-12-02 13:00:00,
2013-12-02 07:05:00,28.5,26.5,29.71,SE,143,3.0,10.0,92,0.00,,---,0.00,VWS V14.01,2013-12-02 13:05:00,
2013-12-02 07:10:00,28.5,26.5,29.71,SE,136,5.0,7.0,92,0.00,,---,0.00,VWS V14.01,2013-12-02 13:10:00,
2013-12-02 07:15:00,28.5,26.5,29.71,SE,143,8.0,9.0,92,0.00,,---,0.00,VWS V14.01,2013-12-02 13:15:00,
2013-12-02 07:20:00,28.7,26.7,29.71,SE,144,6.0,7.0,92,0.00,,---,0.00,VWS V14.01,2013-12-02 13:20:00,
2013-12-02 07:25:00,28.7,26.7,29.71,SSE,147,7.0,9.0,92,0.00,,---,0.00,VWS V14.01,2013-12-02 13:25:00,
2013-12-02 07:30:00,28.7,26.7,29.70,SSE,160,6.0,6.0,92,0.00,,---,0.00,VWS V14.01,2013-12-02 13:30:00,
2013-12-02 07:35:00,28.8,26.8,29.70,SSE,151,2.0,8.0,92,0.00,,---,0.00,VWS V14.01,2013-12-02 13:35:00,
2013-12-02 07:40:00,28.8,26.8,29.70,SE,136,5.0,7.0,92,0.00,,---,0.00,VWS V14.01,2013-12-02 13:40:00,
2013-12-02 07:45:00,28.8,27.0,29.70,SE,138,3.0,9.0,93,0.00,,---,0.00,VWS V14.01,2013-12-02 13:45:00,
2013-12-02 07:50:00,28.8,27.0,29.70,SE,141,3.0,5.0,93,0.00,,---,0.00,VWS V14.01,2013-12-02 13:50:00,
2013-12-02 07:55:00,28.8,27.0,29.70,SE,143,5.0,7.0,93,0.00,,---,0.00,VWS V14.01,2013-12-02 13:55:00,
2013-12-02 08:00:00,29.0,27.2,29.69,SE,130,4.0,6.0,93,0.00,,---,0.00,VWS V14.01,2013-12-02 14:00:00,
2013-12-02 08:05:00,29.0,27.5,29.69,SE,128,3.0,8.0,94,0.00,,---,0.00,VWS V14.01,2013-12-02 14:05:00,
2013-12-02 08:10:00,29.0,27.5,29.69,ESE,119,2.0,7.0,94,0.00,,---,0.00,VWS V14.01,2013-12-02 14:10:00,
2013-12-02 08:15:00,29.1,27.9,29.69,SE,131,3.0,7.0,95,0.00,,---,0.00,VWS V14.01,2013-12-02 14:15:00,
2013-12-02 08:20:00,29.1,27.9,29.69,SE,137,5.0,6.0,95,0.00,,---,0.00,VWS V14.01,2013-12-02 14:20:00,
2013-12-02 08:25:00,29.3,28.0,29.69,SE,143,7.0,9.0,95,0.00,,---,0.00,VWS V14.01,2013-12-02 14:25:00,
2013-12-02 08:30:00,29.4,28.1,29.69,SE,143,6.0,6.0,95,0.00,,---,0.00,VWS V14.01,2013-12-02 14:30:00,
2013-12-02 08:35:00,29.5,28.2,29.69,SE,141,7.0,12.0,95,0.00,,---,0.00,VWS V14.01,2013-12-02 14:35:00,
2013-12-02 08:40:00,29.7,28.5,29.69,SE,141,6.0,7.0,95,0.00,,---,0.00,VWS V14.01,2013-12-02 14:40:00,
2013-12-02 08:45:00,30.0,28.5,29.68,SE,136,7.0,8.0,94,0.00,,---,0.00,VWS V14.01,2013-12-02 14:45:00,
2013-12-02 08:50:00,30.1,28.6,29.68,SE,141,5.0,6.0,94,0.00,,---,0.00,VWS V14.01,2013-12-02 14:50:00,
2013-12-02 08:55:00,30.1,28.6,29.68,SSE,147,5.0,9.0,94,0.00,,---,0.00,VWS V14.01,2013-12-02 14:55:00,
2013-12-02 09:00:00,30.1,28.3,29.68,SE,136,6.0,6.0,93,0.00,,---,0.00,VWS V14.01,2013-12-02 15:00:00,
2013-12-02 09:05:00,30.1,28.3,29.68,SE,131,3.0,11.0,93,0.00,,---,0.00,VWS V14.01,2013-12-02 15:05:00,
2013-12-02 09:10:00,30.3,28.5,29.68,SE,144,7.0,7.0,93,0.00,,---,0.00,VWS V14.01,2013-12-02 15:10:00,
2013-12-02 09:15:00,30.4,28.6,29.67,SE,127,3.0,10.0,93,0.00,,---,0.00,VWS V14.01,2013-12-02 15:15:00,
2013-12-02 09:20:00,30.6,28.8,29.67,SE,137,5.0,6.0,93,0.00,,---,0.00,VWS V14.01,2013-12-02 15:20:00,
2013-12-02 09:25:00,30.7,28.9,29.67,SE,134,3.0,8.0,93,0.00,,---,0.00,VWS V14.01,2013-12-02 15:25:00,
2013-12-02 09:30:00,30.7,28.7,29.67,SE,145,6.0,7.0,92,0.00,,---,0.00,VWS V14.01,2013-12-02 15:30:00,
2013-12-02 09:35:00,30.9,28.9,29.67,ESE,123,3.0,8.0,92,0.00,,---,0.00,VWS V14.01,2013-12-02 15:35:00,
2013-12-02 09:40:00,31.0,28.7,29.67,SE,133,4.0,4.0,91,0.00,,---,0.00,VWS V14.01,2013-12-02 15:40:00,
2013-12-02 09:45:00,31.2,28.9,29.66,SE,141,5.0,7.0,91,0.00,,---,0.00,VWS V14.01,2013-12-02 15:45:00,
2013-12-02 09:50:00,31.3,29.0,29.66,SE,137,7.0,8.0,91,0.00,,---,0.00,VWS V14.01,2013-12-02 15:50:00,
2013-12-02 09:55:00,31.5,29.2,29.66,ESE,119,11.0,11.0,91,0.00,,---,0.00,VWS V14.01,2013-12-02 15:55:00,
2013-12-02 10:00:00,31.6,29.0,29.66,SE,131,4.0,5.0,90,0.00,,---,0.00,VWS V14.01,2013-12-02 16:00:00,
2013-12-02 10:05:00,31.8,29.2,29.66,SE,130,7.0,8.0,90,0.00,,---,0.00,VWS V14.01,2013-12-02 16:05:00,
2013-12-02 10:10:00,31.8,28.9,29.66,SE,128,7.0,7.0,89,0.00,,---,0.00,VWS V14.01,2013-12-02 16:10:00,
2013-12-02 10:15:00,31.9,29.0,29.65,SE,141,6.0,10.0,89,0.00,,---,0.00,VWS V14.01,2013-12-02 16:15:00,
2013-12-02 10:20:00,32.2,29.3,29.65,SE,128,7.0,7.0,89,0.00,,---,0.00,VWS V14.01,2013-12-02 16:20:00,
2013-12-02 10:25:00,32.4,29.5,29.65,SE,141,7.0,11.0,89,0.00,,---,0.00,VWS V14.01,2013-12-02 16:25:00,
2013-12-02 10:30:00,32.5,29.4,29.65,SE,130,7.0,10.0,88,0.00,,---,0.00,VWS V14.01,2013-12-02 16:30:00,
2013-12-02 10:35:00,32.7,29.5,29.65,SE,131,5.0,10.0,88,0.00,,---,0.00,VWS V14.01,2013-12-02 16:35:00,
2013-12-02 10:40:00,32.8,29.4,29.65,SSE,161,8.0,8.0,87,0.00,,---,0.00,VWS V14.01,2013-12-02 16:40:00,
2013-12-02 10:45:00,32.9,29.5,29.65,SSE,150,6.0,11.0,87,0.00,,---,0.00,VWS V14.01,2013-12-02 16:45:00,
2013-12-02 10:50:00,33.1,29.7,29.65,SE,144,6.0,8.0,87,0.00,,---,0.00,VWS V14.01,2013-12-02 16:50:00,
2013-12-02 10:55:00,33.2,29.8,29.65,SSE,158,10.0,11.0,87,0.00,,---,0.00,VWS V14.01,2013-12-02 16:55:00,
2013-12-02 11:00:00,33.4,29.7,29.65,SSE,160,10.0,10.0,86,0.00,,---,0.00,VWS V14.01,2013-12-02 17:00:00,
2013-12-02 11:05:00,33.7,29.7,29.65,SSE,168,11.0,11.0,85,0.00,,---,0.00,VWS V14.01,2013-12-02 17:05:00,
2013-12-02 11:10:00,34.0,30.0,29.65,South,175,11.0,11.0,85,0.00,,---,0.00,VWS V14.01,2013-12-02 17:10:00,
2013-12-02 11:15:00,34.3,30.3,29.64,SSE,148,6.0,12.0,85,0.00,,---,0.00,VWS V14.01,2013-12-02 17:15:00,
2013-12-02 11:20:00,34.6,30.3,29.64,SSE,164,14.0,14.0,84,0.00,,---,0.00,VWS V14.01,2013-12-02 17:20:00,
2013-12-02 11:25:00,34.6,30.6,29.64,SSE,160,11.0,15.0,85,0.00,,---,0.00,VWS V14.01,2013-12-02 17:25:00,
2013-12-02 11:30:00,34.6,31.1,29.63,SSE,160,7.0,10.0,87,0.00,,---,0.00,VWS V14.01,2013-12-02 17:30:00,
2013-12-02 11:35:00,34.3,30.8,29.63,SSE,158,11.0,14.0,87,0.00,,---,0.00,VWS V14.01,2013-12-02 17:35:00,
2013-12-02 11:40:00,34.1,31.2,29.63,SSE,157,5.0,7.0,89,0.00,,---,0.00,VWS V14.01,2013-12-02 17:40:00,
2013-12-02 11:45:00,34.1,30.9,29.62,SE,138,6.0,11.0,88,0.00,,---,0.00,VWS V14.01,2013-12-02 17:45:00,
2013-12-02 11:50:00,34.1,31.2,29.62,SE,143,6.0,7.0,89,0.00,,---,0.00,VWS V14.01,2013-12-02 17:50:00,
2013-12-02 11:55:00,33.8,31.2,29.62,SE,143,7.0,11.0,90,0.00,,---,0.00,VWS V14.01,2013-12-02 17:55:00,
2013-12-02 12:00:00,33.7,31.1,29.60,SE,143,6.0,7.0,90,0.00,,---,0.00,VWS V14.01,2013-12-02 18:00:00,
2013-12-02 12:05:00,33.5,30.9,29.60,SE,133,9.0,13.0,90,0.00,,---,0.00,VWS V14.01,2013-12-02 18:05:00,
2013-12-02 12:10:00,33.5,31.2,29.60,SE,141,5.0,6.0,91,0.00,,---,0.00,VWS V14.01,2013-12-02 18:10:00,
2013-12-02 12:15:00,33.5,31.2,29.59,SE,136,7.0,12.0,91,0.00,,---,0.00,VWS V14.01,2013-12-02 18:15:00,
2013-12-02 12:20:00,33.5,31.2,29.59,SSE,150,6.0,9.0,91,0.00,,---,0.00,VWS V14.01,2013-12-02 18:20:00,
2013-12-02 12:25:00,33.7,31.6,29.59,SE,133,7.0,13.0,92,0.00,,---,0.00,VWS V14.01,2013-12-02 18:25:00,
2013-12-02 12:30:00,33.5,31.4,29.59,SE,137,8.0,8.0,92,0.00,,---,0.00,VWS V14.01,2013-12-02 18:30:00,
2013-12-02 12:35:00,33.7,31.6,29.59,SE,126,5.0,10.0,92,0.00,,---,0.00,VWS V14.01,2013-12-02 18:35:00,
2013-12-02 12:40:00,33.7,31.6,29.59,ESE,116,7.0,11.0,92,0.00,,---,0.00,VWS V14.01,2013-12-02 18:40:00,
2013-12-02 12:45:00,33.8,31.7,29.58,SE,130,6.0,11.0,92,0.00,,---,0.00,VWS V14.01,2013-12-02 18:45:00,
2013-12-02 12:50:00,34.0,31.9,29.58,SE,126,6.0,7.0,92,0.00,,---,0.00,VWS V14.01,2013-12-02 18:50:00,
2013-12-02 12:55:00,34.0,31.9,29.58,ESE,107,4.0,10.0,92,0.00,,---,0.00,VWS V14.01,2013-12-02 18:55:00,
2013-12-02 13:00:00,34.0,31.9,29.57,ESE,106,4.0,7.0,92,0.00,,---,0.00,VWS V14.01,2013-12-02 19:00:00,
2013-12-02 13:05:00,34.0,31.9,29.57,ESE,114,5.0,10.0,92,0.00,,---,0.00,VWS V14.01,2013-12-02 19:05:00,
2013-12-02 13:10:00,34.0,31.9,29.57,ESE,102,7.0,10.0,92,0.00,,---,0.00,VWS V14.01,2013-12-02 19:10:00,
2013-12-02 13:15:00,34.0,31.9,29.57,SE,131,3.0,10.0,92,0.00,,---,0.00,VWS V14.01,2013-12-02 19:15:00,
2013-12-02 13:20:00,33.8,32.0,29.57,ESE,119,2.0,6.0,93,0.00,,---,0.00,VWS V14.01,2013-12-02 19:20:00,
2013-12-02 13:25:00,33.8,32.0,29.57,SE,141,6.0,7.0,93,0.00,,---,0.00,VWS V14.01,2013-12-02 19:25:00,
2013-12-02 13:30:00,33.8,32.3,29.57,ESE,112,3.0,3.0,94,0.00,,---,0.00,VWS V14.01,2013-12-02 19:30:00,
2013-12-02 13:35:00,33.7,32.2,29.57,ESE,123,6.0,10.0,94,0.00,,---,0.00,VWS V14.01,2013-12-02 19:35:00,
2013-12-02 13:40:00,33.7,32.2,29.57,SE,137,3.0,7.0,94,0.01,,---,0.01,VWS V14.01,2013-12-02 19:40:00,
2013-12-02 13:45:00,33.5,32.0,29.56,SE,145,4.0,7.0,94,0.01,,---,0.01,VWS V14.01,2013-12-02 19:45:00,
2013-12-02 13:50:00,33.4,32.1,29.56,ESE,120,5.0,8.0,95,0.01,,---,0.01,VWS V14.01,2013-12-02 19:50:00,
2013-12-02 13:55:00,33.2,32.2,29.56,ESE,117,3.0,8.0,96,0.01,,---,0.01,VWS V14.01,2013-12-02 19:55:00,
2013-12-02 14:00:00,33.1,32.1,29.56,SE,124,3.0,4.0,96,0.01,,---,0.01,VWS V14.01,2013-12-02 20:00:00,
2013-12-02 14:05:00,32.9,32.1,29.56,ESE,104,2.0,6.0,97,0.01,,---,0.01,VWS V14.01,2013-12-02 20:05:00,
2013-12-02 14:10:00,32.9,32.4,29.56,SE,133,1.0,2.0,98,0.01,,---,0.01,VWS V14.01,2013-12-02 20:10:00,
2013-12-02 14:15:00,32.8,32.3,29.56,ESE,116,1.0,8.0,98,0.01,,---,0.01,VWS V14.01,2013-12-02 20:15:00,
2013-12-02 14:20:00,32.7,32.2,29.56,ESE,107,5.0,5.0,98,0.01,,---,0.01,VWS V14.01,2013-12-02 20:20:00,
2013-12-02 14:25:00,32.7,32.5,29.56,ESE,104,5.0,6.0,99,0.01,,---,0.01,VWS V14.01,2013-12-02 20:25:00,
2013-12-02 14:30:00,32.5,32.2,29.55,ESE,110,2.0,2.0,99,0.01,,---,0.01,VWS V14.01,2013-12-02 20:30:00,
2013-12-02 14:35:00,32.5,32.2,29.55,ESE,102,0.0,3.0,99,0.01,,---,0.01,VWS V14.01,2013-12-02 20:35:00,
2013-12-02 14:40:00,32.5,32.2,29.55,East,88,2.0,4.0,99,0.01,,---,0.01,VWS V14.01,2013-12-02 20:40:00,
2013-12-02 14:45:00,32.5,32.5,29.54,East,92,2.0,5.0,100,0.01,,---,0.01,VWS V14.01,2013-12-02 20:45:00,
2013-12-02 14:50:00,32.5,32.5,29.54,ESE,107,2.0,3.0,100,0.00,,---,0.01,VWS V14.01,2013-12-02 20:50:00,
2013-12-02 14:55:00,32.5,32.5,29.54,ESE,110,3.0,7.0,100,0.00,,---,0.01,VWS V14.01,2013-12-02 20:55:00,
2013-12-02 15:00:00,32.5,32.5,29.54,East,95,4.0,4.0,100,0.00,,---,0.01,VWS V14.01,2013-12-02 21:00:00,
2013-12-02 15:05:00,32.5,32.5,29.54,ESE,112,2.0,8.0,100,0.00,,---,0.01,VWS V14.01,2013-12-02 21:05:00,
2013-12-02 15:10:00,32.5,32.5,29.54,ESE,117,2.0,6.0,100,0.00,,---,0.01,VWS V14.01,2013-12-02 21:10:00,
2013-12-02 15:15:00,32.5,32.5,29.54,ESE,102,5.0,7.0,100,0.00,,---,0.01,VWS V14.01,2013-12-02 21:15:00,
2013-12-02 15:20:00,32.5,32.5,29.54,ESE,106,6.0,6.0,100,0.00,,---,0.01,VWS V14.01,2013-12-02 21:20:00,
2013-12-02 15:25:00,32.4,32.4,29.54,ESE,102,1.0,7.0,100,0.00,,---,0.01,VWS V14.01,2013-12-02 21:25:00,
2013-12-02 15:30:00,32.4,32.4,29.54,East,96,3.0,4.0,100,0.00,,---,0.01,VWS V14.01,2013-12-02 21:30:00,
2013-12-02 15:35:00,32.4,32.4,29.54,ESE,114,2.0,10.0,100,0.00,,---,0.01,VWS V14.01,2013-12-02 21:35:00,
2013-12-02 15:40:00,32.4,32.4,29.54,East,95,5.0,5.0,100,0.00,,---,0.01,VWS V14.01,2013-12-02 21:40:00,
2013-12-02 15:45:00,32.4,32.4,29.54,East,96,1.0,10.0,100,0.00,,---,0.01,VWS V14.01,2013-12-02 21:45:00,
2013-12-02 15:50:00,32.2,32.2,29.54,East,95,2.0,3.0,100,0.00,,---,0.01,VWS V14.01,2013-12-02 21:50:00,
2013-12-02 15:55:00,32.2,32.2,29.54,ESE,116,6.0,11.0,100,0.00,,---,0.01,VWS V14.01,2013-12-02 21:55:00,
2013-12-02 16:00:00,32.2,32.2,29.53,ESE,107,3.0,5.0,100,0.00,,---,0.01,VWS V14.01,2013-12-02 22:00:00,
2013-12-02 16:05:00,32.2,32.2,29.53,ESE,106,3.0,10.0,100,0.00,,---,0.01,VWS V14.01,2013-12-02 22:05:00,
2013-12-02 16:10:00,32.2,32.2,29.53,ESE,113,2.0,2.0,100,0.00,,---,0.01,VWS V14.01,2013-12-02 22:10:00,
2013-12-02 16:15:00,32.2,32.2,29.53,ESE,110,3.0,8.0,100,0.00,,---,0.01,VWS V14.01,2013-12-02 22:15:00,
2013-12-02 16:20:00,32.1,32.1,29.53,ESE,121,1.0,2.0,100,0.00,,---,0.01,VWS V14.01,2013-12-02 22:20:00,
2013-12-02 16:25:00,32.1,32.1,29.53,SE,140,3.0,7.0,100,0.01,,---,0.02,VWS V14.01,2013-12-02 22:25:00,
2013-12-02 16:30:00,32.1,32.1,29.53,SE,127,4.0,4.0,100,0.01,,---,0.02,VWS V14.01,2013-12-02 22:30:00,
2013-12-02 16:35:00,32.1,32.1,29.53,SE,127,1.0,7.0,100,0.01,,---,0.02,VWS V14.01,2013-12-02 22:35:00,
2013-12-02 16:40:00,32.1,32.1,29.53,SE,134,3.0,5.0,100,0.01,,---,0.02,VWS V14.01,2013-12-02 22:40:00,
2013-12-02 16:45:00,32.1,32.1,29.54,ESE,123,2.0,7.0,100,0.01,,---,0.02,VWS V14.01,2013-12-02 22:45:00,
2013-12-02 16:50:00,32.1,32.1,29.54,ESE,116,6.0,6.0,100,0.01,,---,0.02,VWS V14.01,2013-12-02 22:50:00,
2013-12-02 16:55:00,32.1,32.1,29.54,SE,130,3.0,8.0,100,0.01,,---,0.02,VWS V14.01,2013-12-02 22:55:00,
2013-12-02 17:00:00,32.1,32.1,29.54,SE,130,7.0,7.0,100,0.01,,---,0.02,VWS V14.01,2013-12-02 23:00:00,
2013-12-02 17:05:00,32.1,32.1,29.54,East,95,3.0,8.0,100,0.01,,---,0.02,VWS V14.01,2013-12-02 23:05:00,
2013-12-02 17:10:00,32.1,32.1,29.54,SE,141,5.0,5.0,100,0.01,,---,0.02,VWS V14.01,2013-12-02 23:10:00,
2013-12-02 17:15:00,32.2,32.2,29.54,SE,140,4.0,7.0,100,0.01,,---,0.02,VWS V14.01,2013-12-02 23:15:00,
2013-12-02 17:20:00,32.2,32.2,29.54,SE,145,5.0,6.0,100,0.01,,---,0.02,VWS V14.01,2013-12-02 23:20:00,
2013-12-02 17:25:00,32.2,32.2,29.54,SE,126,5.0,7.0,100,0.01,,---,0.02,VWS V14.01,2013-12-02 23:25:00,
2013-12-02 17:30:00,32.2,32.2,29.53,ESE,123,6.0,6.0,100,0.00,,---,0.02,VWS V14.01,2013-12-02 23:30:00,
2013-12-02 17:35:00,32.2,32.2,29.53,SE,138,2.0,9.0,100,0.00,,---,0.02,VWS V14.01,2013-12-02 23:35:00,
2013-12-02 17:40:00,32.2,32.2,29.53,ESE,117,7.0,7.0,100,0.00,,---,0.02,VWS V14.01,2013-12-02 23:40:00,
2013-12-02 17:45:00,32.2,32.2,29.54,SSE,150,6.0,9.0,100,0.00,,---,0.02,VWS V14.01,2013-12-02 23:45:00,
2013-12-02 17:50:00,32.2,32.2,29.54,ESE,114,5.0,6.0,100,0.00,,---,0.02,VWS V14.01,2013-12-02 23:50:00,
2013-12-02 17:55:00,32.2,32.2,29.54,SE,137,5.0,6.0,100,0.00,,---,0.02,VWS V14.01,2013-12-02 23:55:00,
2013-12-02 18:00:00,32.4,32.4,29.55,ESE,120,4.0,7.0,100,0.00,,---,0.02,VWS V14.01,2013-12-03 00:00:00,
2013-12-02 18:05:00,32.4,32.4,29.55,ESE,103,6.0,6.0,100,0.00,,---,0.02,VWS V14.01,2013-12-03 00:05:00,
2013-12-02 18:10:00,32.4,32.4,29.55,SSE,150,3.0,9.0,100,0.00,,---,0.02,VWS V14.01,2013-12-03 00:10:00,
2013-12-02 18:15:00,32.4,32.4,29.54,SE,137,3.0,7.0,100,0.00,,---,0.02,VWS V14.01,2013-12-03 00:15:00,
2013-12-02 18:20:00,32.4,32.4,29.54,SE,140,4.0,7.0,100,0.00,,---,0.02,VWS V14.01,2013-12-03 00:20:00,
2013-12-02 18:25:00,32.4,32.4,29.54,South,171,6.0,6.0,100,0.00,,---,0.02,VWS V14.01,2013-12-03 00:25:00,
2013-12-02 18:30:00,32.5,32.5,29.55,SE,136,4.0,7.0,100,0.00,,---,0.02,VWS V14.01,2013-12-03 00:30:00,
2013-12-02 18:35:00,32.5,32.5,29.55,SE,130,4.0,6.0,100,0.00,,---,0.02,VWS V14.01,2013-12-03 00:35:00,
2013-12-02 18:40:00,32.5,32.5,29.55,SE,134,4.0,7.0,100,0.00,,---,0.02,VWS V14.01,2013-12-03 00:40:00,
2013-12-02 18:45:00,32.5,32.5,29.55,SE,141,0.0,5.0,100,0.00,,---,0.02,VWS V14.01,2013-12-03 00:45:00,
2013-12-02 18:50:00,32.5,32.5,29.55,SE,141,2.0,6.0,100,0.00,,---,0.02,VWS V14.01,2013-12-03 00:50:00,
2013-12-02 18:55:00,32.5,32.5,29.55,SE,136,2.0,6.0,100,0.00,,---,0.02,VWS V14.01,2013-12-03 00:55:00,
2013-12-02 19:00:00,32.5,32.5,29.55,SE,127,2.0,6.0,100,0.00,,---,0.02,VWS V14.01,2013-12-03 01:00:00,
2013-12-02 19:05:00,32.5,32.5,29.55,ESE,120,2.0,5.0,100,0.00,,---,0.02,VWS V14.01,2013-12-03 01:05:00,
2013-12-02 19:10:00,32.5,32.5,29.55,ESE,113,3.0,7.0,100,0.00,,---,0.02,VWS V14.01,2013-12-03 01:10:00,
2013-12-02 19:15:00,32.5,32.5,29.55,ESE,120,1.0,5.0,100,0.00,,---,0.02,VWS V14.01,2013-12-03 01:15:00,
2013-12-02 19:20:00,32.5,32.5,29.55,SE,138,3.0,5.0,100,0.00,,---,0.02,VWS V14.01,2013-12-03 01:20:00,
2013-12-02 19:25:00,32.5,32.5,29.55,ESE,120,2.0,6.0,100,0.00,,---,0.02,VWS V14.01,2013-12-03 01:25:00,
2013-12-02 19:30:00,32.5,32.5,29.54,SE,130,2.0,6.0,100,0.00,,---,0.02,VWS V14.01,2013-12-03 01:30:00,
2013-12-02 19:35:00,32.5,32.5,29.54,SE,126,5.0,5.0,100,0.00,,---,0.02,VWS V14.01,2013-12-03 01:35:00,
2013-12-02 19:40:00,32.7,32.7,29.54,SE,140,3.0,6.0,100,0.00,,---,0.02,VWS V14.01,2013-12-03 01:40:00,
2013-12-02 19:45:00,32.7,32.7,29.54,SE,126,3.0,8.0,100,0.00,,---,0.02,VWS V14.01,2013-12-03 01:45:00,
2013-12-02 19:50:00,32.7,32.7,29.54,SE,126,2.0,8.0,100,0.00,,---,0.02,VWS V14.01,2013-12-03 01:50:00,
2013-12-02 19:55:00,32.7,32.7,29.54,SE,136,3.0,6.0,100,0.00,,---,0.02,VWS V14.01,2013-12-03 01:55:00,
2013-12-02 20:00:00,32.7,32.7,29.55,ESE,114,1.0,8.0,100,0.00,,---,0.02,VWS V14.01,2013-12-03 02:00:00,
2013-12-02 20:05:00,32.7,32.7,29.55,SE,138,5.0,5.0,100,0.00,,---,0.02,VWS V14.01,2013-12-03 02:05:00,
2013-12-02 20:10:00,32.7,32.7,29.55,SE,130,3.0,6.0,100,0.01,,---,0.03,VWS V14.01,2013-12-03 02:10:00,
2013-12-02 20:15:00,32.7,32.7,29.55,SE,137,3.0,6.0,100,0.01,,---,0.03,VWS V14.01,2013-12-03 02:15:00,
2013-12-02 20:20:00,32.7,32.7,29.55,SE,141,0.0,6.0,100,0.01,,---,0.03,VWS V14.01,2013-12-03 02:20:00,
2013-12-02 20:25:00,32.7,32.7,29.55,SE,124,2.0,5.0,100,0.01,,---,0.03,VWS V14.01,2013-12-03 02:25:00,
2013-12-02 20:30:00,32.7,32.7,29.55,ESE,107,1.0,5.0,100,0.01,,---,0.03,VWS V14.01,2013-12-03 02:30:00,
2013-12-02 20:35:00,32.7,32.7,29.55,SE,143,1.0,5.0,100,0.01,,---,0.03,VWS V14.01,2013-12-03 02:35:00,
2013-12-02 20:40:00,32.7,32.7,29.55,SE,128,3.0,6.0,100,0.01,,---,0.03,VWS V14.01,2013-12-03 02:40:00,
2013-12-02 20:45:00,32.8,32.8,29.53,SE,134,2.0,5.0,100,0.01,,---,0.03,VWS V14.01,2013-12-03 02:45:00,
2013-12-02 20:50:00,32.8,32.8,29.53,SE,141,3.0,6.0,100,0.01,,---,0.03,VWS V14.01,2013-12-03 02:50:00,
2013-12-02 20:55:00,32.8,32.8,29.53,SE,144,2.0,5.0,100,0.01,,---,0.03,VWS V14.01,2013-12-03 02:55:00,
2013-12-02 20:59:00,32.8,32.8,29.54,SE,127,2.0,5.0,100,0.01,,---,0.03,VWS V14.01,2013-12-03 02:59:00,
2013-12-02 21:04:00,32.8,32.8,29.54,SE,140,0.0,6.0,100,0.01,,---,0.03,VWS V14.01,2013-12-03 03:04:00,
2013-12-02 21:09:00,32.8,32.8,29.54,ESE,106,2.0,6.0,100,0.01,,---,0.03,VWS V14.01,2013-12-03 03:09:00,
2013-12-02 21:14:00,32.8,32.8,29.53,ESE,120,1.0,6.0,100,0.01,,---,0.04,VWS V14.01,2013-12-03 03:14:00,
2013-12-02 21:19:00,32.8,32.8,29.53,ESE,117,3.0,6.0,100,0.01,,---,0.04,VWS V14.01,2013-12-03 03:19:00,
2013-12-02 21:24:00,32.8,32.8,29.53,SSE,152,5.0,7.0,100,0.01,,---,0.04,VWS V14.01,2013-12-03 03:24:00,
2013-12-02 21:29:00,32.8,32.8,29.53,East,97,3.0,7.0,100,0.01,,---,0.04,VWS V14.01,2013-12-03 03:29:00,
2013-12-02 21:34:00,32.8,32.8,29.53,East,97,2.0,5.0,100,0.01,,---,0.04,VWS V14.01,2013-12-03 03:34:00,
2013-12-02 21:39:00,32.8,32.8,29.53,ESE,109,0.0,5.0,100,0.01,,---,0.04,VWS V14.01,2013-12-03 03:39:00,
2013-12-02 21:44:00,32.8,32.8,29.53,East,95,3.0,3.0,100,0.01,,---,0.04,VWS V14.01,2013-12-03 03:44:00,
2013-12-02 21:49:00,32.8,32.8,29.53,East,97,3.0,4.0,100,0.01,,---,0.04,VWS V14.01,2013-12-03 03:49:00,
2013-12-02 21:54:00,32.8,32.8,29.53,East,92,2.0,3.0,100,0.01,,---,0.04,VWS V14.01,2013-12-03 03:54:00,
2013-12-02 21:59:00,32.8,32.8,29.54,East,90,0.0,3.0,100,0.01,,---,0.04,VWS V14.01,2013-12-03 03:59:00,
2013-12-02 22:04:00,32.8,32.8,29.54,East,92,0.0,2.0,100,0.01,,---,0.04,VWS V14.01,2013-12-03 04:04:00,
2013-12-02 22:09:00,32.8,32.8,29.54,East,90,1.0,2.0,100,0.01,,---,0.04,VWS V14.01,2013-12-03 04:09:00,
2013-12-02 22:14:00,32.8,32.8,29.55,East,90,0.0,1.0,100,0.01,,---,0.04,VWS V14.01,2013-12-03 04:14:00,
2013-12-02 22:19:00,32.7,32.7,29.55,East,90,0.0,1.0,100,0.02,,---,0.05,VWS V14.01,2013-12-03 04:19:00,
2013-12-02 22:24:00,32.7,32.7,29.55,East,90,0.0,1.0,100,0.01,,---,0.05,VWS V14.01,2013-12-03 04:24:00,
2013-12-02 22:29:00,32.7,32.7,29.55,East,89,0.0,1.0,100,0.01,,---,0.05,VWS V14.01,2013-12-03 04:29:00,
2013-12-02 22:34:00,32.7,32.7,29.55,East,89,0.0,2.0,100,0.01,,---,0.05,VWS V14.01,2013-12-03 04:34:00,
2013-12-02 22:39:00,32.7,32.7,29.55,East,88,0.0,2.0,100,0.01,,---,0.05,VWS V14.01,2013-12-03 04:39:00,
2013-12-02 22:44:00,32.7,32.7,29.54,East,88,0.0,2.0,100,0.01,,---,0.05,VWS V14.01,2013-12-03 04:44:00,
2013-12-02 22:49:00,32.7,32.7,29.54,ENE,73,0.0,3.0,100,0.01,,---,0.05,VWS V14.01,2013-12-03 04:49:00,
2013-12-02 22:54:00,32.5,32.5,29.54,ENE,72,0.0,2.0,100,0.01,,---,0.05,VWS V14.01,2013-12-03 04:54:00,
2013-12-02 22:59:00,32.5,32.5,29.55,ENE,64,2.0,2.0,100,0.01,,---,0.05,VWS V14.01,2013-12-03 04:59:00,
2013-12-02 23:01:00,32.5,32.5,29.55,ENE,65,0.0,0.0,100,0.01,,---,0.00,VWS V14.01,2013-12-03 05:01:00,
2013-12-02 23:02:00,32.5,32.5,29.55,ENE,66,0.0,0.0,100,0.01,,---,0.00,VWS V14.01,2013-12-03 05:02:00,
2013-12-02 23:07:00,32.5,32.5,29.55,ENE,66,0.0,2.0,100,0.01,,---,0.00,VWS V14.01,2013-12-03 05:07:00,
2013-12-02 23:12:00,32.5,32.5,29.55,ENE,68,0.0,0.0,100,0.01,,---,0.00,VWS V14.01,2013-12-03 05:12:00,
2013-12-02 23:17:00,32.5,32.5,29.55,ENE,66,0.0,0.0,100,0.01,,---,0.00,VWS V14.01,2013-12-03 05:17:00,
2013-12-02 23:22:00,32.5,32.5,29.55,East,88,0.0,3.0,100,0.00,,---,0.00,VWS V14.01,2013-12-03 05:22:00,
2013-12-02 23:27:00,32.5,32.5,29.55,East,89,0.0,3.0,100,0.00,,---,0.00,VWS V14.01,2013-12-03 05:27:00,
2013-12-02 23:32:00,32.5,32.5,29.55,East,90,0.0,1.0,100,0.00,,---,0.00,VWS V14.01,2013-12-03 05:32:00,
2013-12-02 23:37:00,32.5,32.5,29.55,East,88,0.0,1.0,100,0.00,,---,0.00,VWS V14.01,2013-12-03 05:37:00,
2013-12-02 23:42:00,32.5,32.5,29.55,East,86,2.0,2.0,100,0.00,,---,0.00,VWS V14.01,2013-12-03 05:42:00,
2013-12-02 23:47:00,32.5,32.5,29.55,East,89,0.0,3.0,100,0.00,,---,0.00,VWS V14.01,2013-12-03 05:47:00,
2013-12-02 23:52:00,32.5,32.5,29.55,ENE,73,0.0,2.0,100,0.00,,---,0.00,VWS V14.01,2013-12-03 05:52:00,
2013-12-02 23:57:00,32.5,32.5,29.55,East,95,0.0,3.0,100,0.00,,---,0.00,VWS V14.01,2013-12-03 05:57:00,